OPRN weather

Benazir Bhutto International Airport
Islamabad, Punjab, Pakistan

Public forecast

Using degrees Celsius for public forecast. Weather courtesy of forecast.io.

Current aviation weather report (METAR) for Benazir Bhutto International Airport

Report is more than 6 hours old.

Retrieved 2019/12/13 12:55 UTC (3 days ago):

OPRN 131255Z METAR OPSK 131155Z

Aviation forecast (TAF) for Benazir Bhutto International Airport

Forecast is more than 12 hours old.

Retrieved 2019/05/15 00:06 UTC (7 months ago):

TAF OPRN 152130Z 1600/1706 07010KT 7000 FEW040 SCT100 BECMG 1603/1612 23010G20KT SCT040 BECMG 1614/1616 03006KT CAVOK